sensor_id;sensor_type;location;lat;lon;timestamp;pressure;altitude;pressure_sealevel;temperature;humidity
64862;BME280;62652;42.274;-71.436;2024-03-23T00:54:01;101950.0;;;4.2777777777777795;unknown
64862;BME280;62652;42.274;-71.436;2024-03-23T00:55:01;101950.0;;;4.2777777777777795;unknown
64862;BME280;62652;42.274;-71.436;2024-03-23T00:56:00;101950.0;;;4.2777777777777795;unknown
64862;BME280;62652;42.274;-71.436;2024-03-23T00:57:00;101930.0;;;4.2777777777777795;unknown
64862;BME280;62652;42.274;-71.436;2024-03-23T00:58:01;101930.0;;;4.2777777777777795;unknown
64862;BME280;62652;42.274;-71.436;2024-03-23T00:59:00;101920.0;;;4.2777777777777795;unknown
64862;BME280;62652;42.274;-71.436;2024-03-23T01:00:00;101920.0;;;4.222222222222223;unknown
64862;BME280;62652;42.274;-71.436;2024-03-23T01:01:01;101920.0;;;4.222222222222223;unknown
64862;BME280;62652;42.274;-71.436;2024-03-23T01:02:01;101920.0;;;4.222222222222223;unknown
64862;BME280;62652;42.274;-71.436;2024-03-23T01:03:01;101920.0;;;4.222222222222223;unknown
64862;BME280;62652;42.274;-71.436;2024-03-23T01:04:00;101920.0;;;4.222222222222223;unknown
64862;BME280;62652;42.274;-71.436;2024-03-23T01:05:00;101910.0;;;4.222222222222223;unknown
64862;BME280;62652;42.274;-71.436;2024-03-23T01:06:01;101910.0;;;4.2777777777777795;unknown
64862;BME280;62652;42.274;-71.436;2024-03-23T01:07:01;101920.0;;;4.222222222222223;unknown
64862;BME280;62652;42.274;-71.436;2024-03-23T01:08:01;101920.0;;;4.222222222222223;unknown
64862;BME280;62652;42.274;-71.436;2024-03-23T01:09:01;101920.0;;;4.222222222222223;unknown
64862;BME280;62652;42.274;-71.436;2024-03-23T01:10:00;101910.0;;;4.000000000000002;unknown
64862;BME280;62652;42.274;-71.436;2024-03-23T01:11:02;101910.0;;;4.111111111111111;unknown
64862;BME280;62652;42.274;-71.436;2024-03-23T01:12:01;101900.0;;;4.111111111111111;unknown
64862;BME280;62652;42.274;-71.436;2024-03-23T01:13:01;101900.0;;;4.222222222222223;unknown
64862;BME280;62652;42.274;-71.436;2024-03-23T01:14:01;101900.0;;;4.111111111111111;unknown
64862;BME280;62652;42.274;-71.436;2024-03-23T01:15:01;101890.0;;;4.222222222222223;unknown
64862;BME280;62652;42.274;-71.436;2024-03-23T01:16:00;101890.0;;;4.111111111111111;unknown
64862;BME280;62652;42.274;-71.436;2024-03-23T01:17:00;101880.0;;;4.222222222222223;unknown
64862;BME280;62652;42.274;-71.436;2024-03-23T01:18:00;101890.0;;;4.111111111111111;unknown
64862;BME280;62652;42.274;-71.436;2024-03-23T01:19:01;101890.0;;;4.111111111111111;unknown
64862;BME280;62652;42.274;-71.436;2024-03-23T01:20:01;101890.0;;;4.000000000000002;unknown
64862;BME280;62652;42.274;-71.436;2024-03-23T01:21:00;101890.0;;;4.000000000000002;unknown
64862;BME280;62652;42.274;-71.436;2024-03-23T01:22:00;101900.0;;;4.111111111111111;unknown
64862;BME280;62652;42.274;-71.436;2024-03-23T01:23:00;101900.0;;;4.111111111111111;unknown
64862;BME280;62652;42.274;-71.436;2024-03-23T01:24:01;101900.0;;;4.111111111111111;unknown
64862;BME280;62652;42.274;-71.436;2024-03-23T01:25:00;101900.0;;;4.111111111111111;unknown
64862;BME280;62652;42.274;-71.436;2024-03-23T01:26:00;101900.0;;;4.111111111111111;unknown
64862;BME280;62652;42.274;-71.436;2024-03-23T01:27:00;101900.0;;;4.111111111111111;unknown
64862;BME280;62652;42.274;-71.436;2024-03-23T01:28:01;101900.0;;;4.111111111111111;unknown
64862;BME280;62652;42.274;-71.436;2024-03-23T01:29:00;101900.0;;;4.111111111111111;unknown
64862;BME280;62652;42.274;-71.436;2024-03-23T01:30:00;101900.0;;;4.111111111111111;unknown
64862;BME280;62652;42.274;-71.436;2024-03-23T01:31:00;101900.0;;;4.111111111111111;unknown
64862;BME280;62652;42.274;-71.436;2024-03-23T01:32:01;101900.0;;;4.111111111111111;unknown
64862;BME280;62652;42.274;-71.436;2024-03-23T01:33:01;101910.0;;;4.111111111111111;unknown
64862;BME280;62652;42.274;-71.436;2024-03-23T01:34:01;101900.0;;;4.000000000000002;unknown
64862;BME280;62652;42.274;-71.436;2024-03-23T01:35:00;101910.0;;;4.000000000000002;unknown
64862;BME280;62652;42.274;-71.436;2024-03-23T01:36:00;101900.0;;;3.7777777777777763;unknown
64862;BME280;62652;42.274;-71.436;2024-03-23T01:37:01;101900.0;;;3.888888888888889;unknown
64862;BME280;62652;42.274;-71.436;2024-03-23T01:38:01;101900.0;;;3.888888888888889;unknown
64862;BME280;62652;42.274;-71.436;2024-03-23T01:39:01;101900.0;;;3.7777777777777763;unknown
64862;BME280;62652;42.274;-71.436;2024-03-23T01:40:01;101900.0;;;3.7777777777777763;unknown
64862;BME280;62652;42.274;-71.436;2024-03-23T01:41:00;101890.0;;;3.7777777777777763;unknown
64862;BME280;62652;42.274;-71.436;2024-03-23T01:42:00;101890.0;;;3.7222222222222237;unknown
64862;BME280;62652;42.274;-71.436;2024-03-23T01:43:03;101890.0;;;3.7222222222222237;unknown
64862;BME280;62652;42.274;-71.436;2024-03-23T01:44:05;101890.0;;;3.7222222222222237;unknown
64862;BME280;62652;42.274;-71.436;2024-03-23T01:45:01;101900.0;;;3.7777777777777763;unknown
64862;BME280;62652;42.274;-71.436;2024-03-23T01:46:01;101900.0;;;3.7222222222222237;unknown
64862;BME280;62652;42.274;-71.436;2024-03-23T01:47:00;101900.0;;;3.7777777777777763;unknown
64862;BME280;62652;42.274;-71.436;2024-03-23T01:48:01;101910.0;;;3.888888888888889;unknown
64862;BME280;62652;42.274;-71.436;2024-03-23T01:49:00;101900.0;;;3.7777777777777763;unknown
64862;BME280;62652;42.274;-71.436;2024-03-23T01:50:01;101900.0;;;3.7777777777777763;unknown
64862;BME280;62652;42.274;-71.436;2024-03-23T01:51:00;101890.0;;;3.7222222222222237;unknown
64862;BME280;62652;42.274;-71.436;2024-03-23T01:52:01;101890.0;;;3.7777777777777763;unknown
64862;BME280;62652;42.274;-71.436;2024-03-23T01:53:02;101880.0;;;3.7777777777777763;unknown
64862;BME280;62652;42.274;-71.436;2024-03-23T01:54:01;101880.0;;;3.7777777777777763;unknown
64862;BME280;62652;42.274;-71.436;2024-03-23T01:55:00;101870.0;;;3.7777777777777763;unknown
64862;BME280;62652;42.274;-71.436;2024-03-23T01:56:02;101870.0;;;3.7777777777777763;unknown
64862;BME280;62652;42.274;-71.436;2024-03-23T01:57:01;101870.0;;;3.7777777777777763;unknown
64862;BME280;62652;42.274;-71.436;2024-03-23T01:58:00;101870.0;;;3.7777777777777763;unknown
64862;BME280;62652;42.274;-71.436;2024-03-23T01:59:00;101870.0;;;3.7222222222222237;unknown
64862;BME280;62652;42.274;-71.436;2024-03-23T02:00:01;101870.0;;;3.7777777777777763;unknown
64862;BME280;62652;42.274;-71.436;2024-03-23T02:01:00;101870.0;;;3.7222222222222237;unknown
64862;BME280;62652;42.274;-71.436;2024-03-23T02:02:01;101870.0;;;3.7777777777777763;unknown
64862;BME280;62652;42.274;-71.436;2024-03-23T02:03:00;101880.0;;;3.7222222222222237;unknown
64862;BME280;62652;42.274;-71.436;2024-03-23T02:04:00;101890.0;;;3.7777777777777763;unknown
64862;BME280;62652;42.274;-71.436;2024-03-23T02:05:01;101890.0;;;3.611111111111111;unknown
64862;BME280;62652;42.274;-71.436;2024-03-23T02:06:00;101900.0;;;3.611111111111111;unknown
64862;BME280;62652;42.274;-71.436;2024-03-23T02:07:00;101900.0;;;3.7222222222222237;unknown
64862;BME280;62652;42.274;-71.436;2024-03-23T02:08:00;101900.0;;;3.7222222222222237;unknown
64862;BME280;62652;42.274;-71.436;2024-03-23T02:09:00;101900.0;;;3.7777777777777763;unknown
64862;BME280;62652;42.274;-71.436;2024-03-23T02:10:01;101910.0;;;3.7222222222222237;unknown
64862;BME280;62652;42.274;-71.436;2024-03-23T02:11:01;101900.0;;;3.7777777777777763;unknown
64862;BME280;62652;42.274;-71.436;2024-03-23T02:12:02;101900.0;;;3.7777777777777763;unknown
64862;BME280;62652;42.274;-71.436;2024-03-23T02:13:00;101900.0;;;3.7777777777777763;unknown
64862;BME280;62652;42.274;-71.436;2024-03-23T02:14:01;101900.0;;;3.7777777777777763;unknown
64862;BME280;62652;42.274;-71.436;2024-03-23T02:15:01;101890.0;;;3.7777777777777763;unknown
64862;BME280;62652;42.274;-71.436;2024-03-23T02:16:01;101890.0;;;3.7777777777777763;unknown
64862;BME280;62652;42.274;-71.436;2024-03-23T02:17:01;101890.0;;;3.7777777777777763;unknown
64862;BME280;62652;42.274;-71.436;2024-03-23T02:18:01;101890.0;;;3.7777777777777763;unknown
64862;BME280;62652;42.274;-71.436;2024-03-23T02:19:01;101890.0;;;3.7777777777777763;unknown
64862;BME280;62652;42.274;-71.436;2024-03-23T02:20:01;101890.0;;;3.888888888888889;unknown
64862;BME280;62652;42.274;-71.436;2024-03-23T02:21:01;101880.0;;;3.888888888888889;unknown
64862;BME280;62652;42.274;-71.436;2024-03-23T02:22:00;101880.0;;;3.7777777777777763;unknown
64862;BME280;62652;42.274;-71.436;2024-03-23T02:23:01;101880.0;;;3.7777777777777763;unknown
64862;BME280;62652;42.274;-71.436;2024-03-23T02:24:00;101880.0;;;3.7777777777777763;unknown
64862;BME280;62652;42.274;-71.436;2024-03-23T02:25:00;101880.0;;;3.888888888888889;unknown
64862;BME280;62652;42.274;-71.436;2024-03-23T02:26:00;101870.0;;;3.7777777777777763;unknown
64862;BME280;62652;42.274;-71.436;2024-03-23T02:27:02;101870.0;;;3.7777777777777763;unknown
64862;BME280;62652;42.274;-71.436;2024-03-23T02:28:00;101870.0;;;3.7777777777777763;unknown
64862;BME280;62652;42.274;-71.436;2024-03-23T02:29:01;101870.0;;;3.7777777777777763;unknown
64862;BME280;62652;42.274;-71.436;2024-03-23T02:30:01;101880.0;;;3.7777777777777763;unknown
64862;BME280;62652;42.274;-71.436;2024-03-23T02:31:00;101880.0;;;3.7777777777777763;unknown
64862;BME280;62652;42.274;-71.436;2024-03-23T02:32:00;101880.0;;;3.7777777777777763;unknown
64862;BME280;62652;42.274;-71.436;2024-03-23T02:33:01;101890.0;;;3.7777777777777763;unknown
64862;BME280;62652;42.274;-71.436;2024-03-23T02:34:00;101880.0;;;3.7777777777777763;unknown
64862;BME280;62652;42.274;-71.436;2024-03-23T02:35:01;101880.0;;;3.888888888888889;unknown
64862;BME280;62652;42.274;-71.436;2024-03-23T02:36:00;101870.0;;;3.888888888888889;unknown
64862;BME280;62652;42.274;-71.436;2024-03-23T02:37:01;101870.0;;;3.888888888888889;unknown
64862;BME280;62652;42.274;-71.436;2024-03-23T02:38:00;101870.0;;;3.888888888888889;unknown
64862;BME280;62652;42.274;-71.436;2024-03-23T02:39:00;101880.0;;;3.888888888888889;unknown
64862;BME280;62652;42.274;-71.436;2024-03-23T02:40:00;101880.0;;;3.888888888888889;unknown
64862;BME280;62652;42.274;-71.436;2024-03-23T02:41:02;101890.0;;;3.888888888888889;unknown
64862;BME280;62652;42.274;-71.436;2024-03-23T02:42:00;101880.0;;;3.7777777777777763;unknown
64862;BME280;62652;42.274;-71.436;2024-03-23T02:43:00;101880.0;;;3.611111111111111;unknown
64862;BME280;62652;42.274;-71.436;2024-03-23T02:44:00;101880.0;;;3.3888888888888897;unknown
64862;BME280;62652;42.274;-71.436;2024-03-23T02:45:00;101870.0;;;3.4999999999999982;unknown
64862;BME280;62652;42.274;-71.436;2024-03-23T02:46:00;101880.0;;;3.4999999999999982;unknown
64862;BME280;62652;42.274;-71.436;2024-03-23T02:47:01;101880.0;;;3.7222222222222237;unknown
64862;BME280;62652;42.274;-71.436;2024-03-23T02:48:00;101880.0;;;3.611111111111111;unknown
64862;BME280;62652;42.274;-71.436;2024-03-23T02:49:00;101880.0;;;3.611111111111111;unknown
64862;BME280;62652;42.274;-71.436;2024-03-23T02:50:01;101870.0;;;3.7222222222222237;unknown
64862;BME280;62652;42.274;-71.436;2024-03-23T02:51:00;101870.0;;;3.611111111111111;unknown
64862;BME280;62652;42.274;-71.436;2024-03-23T02:52:01;101870.0;;;3.7222222222222237;unknown
64862;BME280;62652;42.274;-71.436;2024-03-23T02:53:00;101870.0;;;3.611111111111111;unknown
64862;BME280;62652;42.274;-71.436;2024-03-23T02:54:00;101880.0;;;3.611111111111111;unknown
64862;BME280;62652;42.274;-71.436;2024-03-23T02:55:00;101880.0;;;3.4999999999999982;unknown
64862;BME280;62652;42.274;-71.436;2024-03-23T02:56:01;101880.0;;;3.4999999999999982;unknown
64862;BME280;62652;42.274;-71.436;2024-03-23T02:57:00;101870.0;;;3.4999999999999982;unknown
64862;BME280;62652;42.274;-71.436;2024-03-23T02:58:01;101870.0;;;3.4999999999999982;unknown
64862;BME280;62652;42.274;-71.436;2024-03-23T02:59:00;101870.0;;;3.4999999999999982;unknown
64862;BME280;62652;42.274;-71.436;2024-03-23T03:00:00;101880.0;;;3.4999999999999982;unknown
64862;BME280;62652;42.274;-71.436;2024-03-23T03:01:00;101880.0;;;3.4999999999999982;unknown
64862;BME280;62652;42.274;-71.436;2024-03-23T03:02:00;101880.0;;;3.4999999999999982;unknown
64862;BME280;62652;42.274;-71.436;2024-03-23T03:03:01;101870.0;;;3.611111111111111;unknown
64862;BME280;62652;42.274;-71.436;2024-03-23T03:04:00;101870.0;;;3.611111111111111;unknown
64862;BME280;62652;42.274;-71.436;2024-03-23T03:05:01;101870.0;;;3.611111111111111;unknown
64862;BME280;62652;42.274;-71.436;2024-03-23T03:06:00;101860.0;;;3.611111111111111;unknown
64862;BME280;62652;42.274;-71.436;2024-03-23T03:07:00;101860.0;;;3.611111111111111;unknown
64862;BME280;62652;42.274;-71.436;2024-03-23T03:08:01;101860.0;;;3.611111111111111;unknown
64862;BME280;62652;42.274;-71.436;2024-03-23T03:09:00;101860.0;;;3.611111111111111;unknown
64862;BME280;62652;42.274;-71.436;2024-03-23T03:10:00;101860.0;;;3.611111111111111;unknown
64862;BME280;62652;42.274;-71.436;2024-03-23T03:11:01;101860.0;;;3.611111111111111;unknown
64862;BME280;62652;42.274;-71.436;2024-03-23T03:12:01;101860.0;;;3.611111111111111;unknown
64862;BME280;62652;42.274;-71.436;2024-03-23T03:13:01;101860.0;;;3.611111111111111;unknown
64862;BME280;62652;42.274;-71.436;2024-03-23T03:14:01;101860.0;;;3.611111111111111;unknown
64862;BME280;62652;42.274;-71.436;2024-03-23T03:15:00;101860.0;;;3.7222222222222237;unknown
64862;BME280;62652;42.274;-71.436;2024-03-23T03:16:00;101860.0;;;3.7222222222222237;unknown
64862;BME280;62652;42.274;-71.436;2024-03-23T03:17:01;101860.0;;;3.4999999999999982;unknown
64862;BME280;62652;42.274;-71.436;2024-03-23T03:18:00;101870.0;;;3.3888888888888897;unknown
64862;BME280;62652;42.274;-71.436;2024-03-23T03:19:00;101870.0;;;3.4999999999999982;unknown
64862;BME280;62652;42.274;-71.436;2024-03-23T03:20:01;101870.0;;;3.4999999999999982;unknown
64862;BME280;62652;42.274;-71.436;2024-03-23T03:21:01;101870.0;;;3.4999999999999982;unknown
64862;BME280;62652;42.274;-71.436;2024-03-23T03:22:01;101870.0;;;3.3888888888888897;unknown
64862;BME280;62652;42.274;-71.436;2024-03-23T03:23:00;101870.0;;;3.4999999999999982;unknown
64862;BME280;62652;42.274;-71.436;2024-03-23T03:24:01;101880.0;;;3.3888888888888897;unknown
64862;BME280;62652;42.274;-71.436;2024-03-23T03:25:01;101880.0;;;3.3888888888888897;unknown
64862;BME280;62652;42.274;-71.436;2024-03-23T03:26:00;101880.0;;;3.3888888888888897;unknown
64862;BME280;62652;42.274;-71.436;2024-03-23T03:27:00;101870.0;;;3.3888888888888897;unknown
64862;BME280;62652;42.274;-71.436;2024-03-23T03:28:00;101870.0;;;3.3888888888888897;unknown
64862;BME280;62652;42.274;-71.436;2024-03-23T03:29:00;101870.0;;;3.3888888888888897;unknown
64862;BME280;62652;42.274;-71.436;2024-03-23T03:30:01;101880.0;;;3.2222222222222205;unknown
64862;BME280;62652;42.274;-71.436;2024-03-23T03:31:01;101880.0;;;3.277777777777777;unknown
64862;BME280;62652;42.274;-71.436;2024-03-23T03:32:01;101890.0;;;3.277777777777777;unknown
64862;BME280;62652;42.274;-71.436;2024-03-23T03:33:00;101890.0;;;3.277777777777777;unknown
64862;BME280;62652;42.274;-71.436;2024-03-23T03:34:00;101890.0;;;3.277777777777777;unknown
64862;BME280;62652;42.274;-71.436;2024-03-23T03:35:01;101890.0;;;3.277777777777777;unknown
64862;BME280;62652;42.274;-71.436;2024-03-23T03:36:01;101880.0;;;3.277777777777777;unknown
64862;BME280;62652;42.274;-71.436;2024-03-23T03:37:00;101880.0;;;3.277777777777777;unknown
64862;BME280;62652;42.274;-71.436;2024-03-23T03:38:00;101880.0;;;3.2222222222222205;unknown
64862;BME280;62652;42.274;-71.436;2024-03-23T03:39:01;101880.0;;;3.2222222222222205;unknown
64862;BME280;62652;42.274;-71.436;2024-03-23T03:40:01;101880.0;;;3.277777777777777;unknown
64862;BME280;62652;42.274;-71.436;2024-03-23T03:41:01;101870.0;;;3.2222222222222205;unknown
64862;BME280;62652;42.274;-71.436;2024-03-23T03:42:00;101870.0;;;3.2222222222222205;unknown
64862;BME280;62652;42.274;-71.436;2024-03-23T03:43:00;101870.0;;;3.2222222222222205;unknown
64862;BME280;62652;42.274;-71.436;2024-03-23T03:44:01;101870.0;;;3.2222222222222205;unknown
64862;BME280;62652;42.274;-71.436;2024-03-23T03:45:01;101860.0;;;3.2222222222222205;unknown
64862;BME280;62652;42.274;-71.436;2024-03-23T03:46:01;101860.0;;;3.2222222222222205;unknown
64862;BME280;62652;42.274;-71.436;2024-03-23T03:47:00;101870.0;;;3.2222222222222205;unknown
64862;BME280;62652;42.274;-71.436;2024-03-23T03:48:01;101860.0;;;3.277777777777777;unknown
64862;BME280;62652;42.274;-71.436;2024-03-23T03:49:01;101860.0;;;3.2222222222222205;unknown
64862;BME280;62652;42.274;-71.436;2024-03-23T03:50:00;101870.0;;;3.111111111111112;unknown
64862;BME280;62652;42.274;-71.436;2024-03-23T03:51:00;101870.0;;;3.111111111111112;unknown
64862;BME280;62652;42.274;-71.436;2024-03-23T03:52:00;101870.0;;;2.999999999999999;unknown
64862;BME280;62652;42.274;-71.436;2024-03-23T03:53:00;101880.0;;;2.999999999999999;unknown
64862;BME280;62652;42.274;-71.436;2024-03-23T03:54:01;101870.0;;;2.999999999999999;unknown
64862;BME280;62652;42.274;-71.436;2024-03-23T03:55:03;101880.0;;;2.8888888888888906;unknown
64862;BME280;62652;42.274;-71.436;2024-03-23T03:56:01;101870.0;;;2.8888888888888906;unknown
64862;BME280;62652;42.274;-71.436;2024-03-23T03:57:00;101880.0;;;2.8888888888888906;unknown
64862;BME280;62652;42.274;-71.436;2024-03-23T03:58:01;101890.0;;;2.7777777777777777;unknown
64862;BME280;62652;42.274;-71.436;2024-03-23T03:59:00;101890.0;;;2.7777777777777777;unknown
64862;BME280;62652;42.274;-71.436;2024-03-23T04:00:01;101890.0;;;2.7777777777777777;unknown
64862;BME280;62652;42.274;-71.436;2024-03-23T04:01:00;101900.0;;;2.6111111111111125;unknown
64862;BME280;62652;42.274;-71.436;2024-03-23T04:02:00;101890.0;;;2.6111111111111125;unknown
64862;BME280;62652;42.274;-71.436;2024-03-23T04:03:01;101900.0;;;2.5;unknown
64862;BME280;62652;42.274;-71.436;2024-03-23T04:04:00;101900.0;;;2.5;unknown
64862;BME280;62652;42.274;-71.436;2024-03-23T04:05:00;101900.0;;;2.5;unknown
64862;BME280;62652;42.274;-71.436;2024-03-23T04:06:01;101900.0;;;2.3888888888888875;unknown
64862;BME280;62652;42.274;-71.436;2024-03-23T04:07:01;101890.0;;;2.3888888888888875;unknown
64862;BME280;62652;42.274;-71.436;2024-03-23T04:08:00;101890.0;;;2.3888888888888875;unknown
64862;BME280;62652;42.274;-71.436;2024-03-23T04:09:01;101890.0;;;2.3888888888888875;unknown
64862;BME280;62652;42.274;-71.436;2024-03-23T04:10:01;101890.0;;;2.2777777777777786;unknown
64862;BME280;62652;42.274;-71.436;2024-03-23T04:11:01;101890.0;;;2.3888888888888875;unknown
64862;BME280;62652;42.274;-71.436;2024-03-23T04:12:01;101890.0;;;2.3888888888888875;unknown
64862;BME280;62652;42.274;-71.436;2024-03-23T04:13:00;101890.0;;;2.3888888888888875;unknown
64862;BME280;62652;42.274;-71.436;2024-03-23T04:14:01;101890.0;;;2.2777777777777786;unknown
64862;BME280;62652;42.274;-71.436;2024-03-23T04:15:01;101890.0;;;2.2777777777777786;unknown
64862;BME280;62652;42.274;-71.436;2024-03-23T04:16:01;101890.0;;;2.2777777777777786;unknown
64862;BME280;62652;42.274;-71.436;2024-03-23T04:17:00;101900.0;;;2.3888888888888875;unknown
64862;BME280;62652;42.274;-71.436;2024-03-23T04:18:00;101910.0;;;2.3888888888888875;unknown
64862;BME280;62652;42.274;-71.436;2024-03-23T04:19:01;101910.0;;;2.3888888888888875;unknown
64862;BME280;62652;42.274;-71.436;2024-03-23T04:20:02;101910.0;;;2.2777777777777786;unknown
64862;BME280;62652;42.274;-71.436;2024-03-23T04:21:01;101900.0;;;2.2222222222222223;unknown
64862;BME280;62652;42.274;-71.436;2024-03-23T04:22:00;101900.0;;;2.2222222222222223;unknown
64862;BME280;62652;42.274;-71.436;2024-03-23T04:23:01;101900.0;;;2.2222222222222223;unknown
64862;BME280;62652;42.274;-71.436;2024-03-23T04:24:00;101900.0;;;2.2222222222222223;unknown
64862;BME280;62652;42.274;-71.436;2024-03-23T04:25:01;101900.0;;;2.1111111111111094;unknown
64862;BME280;62652;42.274;-71.436;2024-03-23T04:26:03;101910.0;;;2.2222222222222223;unknown
64862;BME280;62652;42.274;-71.436;2024-03-23T04:27:01;101900.0;;;2.1111111111111094;unknown
64862;BME280;62652;42.274;-71.436;2024-03-23T04:28:01;101890.0;;;2.1111111111111094;unknown
64862;BME280;62652;42.274;-71.436;2024-03-23T04:29:00;101890.0;;;2.1111111111111094;unknown
64862;BME280;62652;42.274;-71.436;2024-03-23T04:30:01;101880.0;;;2.1111111111111094;unknown
64862;BME280;62652;42.274;-71.436;2024-03-23T04:31:03;101890.0;;;2.1111111111111094;unknown
64862;BME280;62652;42.274;-71.436;2024-03-23T04:32:00;101880.0;;;2.2222222222222223;unknown
64862;BME280;62652;42.274;-71.436;2024-03-23T04:33:01;101880.0;;;2.1111111111111094;unknown
64862;BME280;62652;42.274;-71.436;2024-03-23T04:34:00;101880.0;;;2.1111111111111094;unknown
64862;BME280;62652;42.274;-71.436;2024-03-23T04:35:00;101870.0;;;2.000000000000001;unknown
64862;BME280;62652;42.274;-71.436;2024-03-23T04:36:00;101880.0;;;2.1111111111111094;unknown
64862;BME280;62652;42.274;-71.436;2024-03-23T04:37:00;101880.0;;;2.1111111111111094;unknown
64862;BME280;62652;42.274;-71.436;2024-03-23T04:38:00;101880.0;;;2.2222222222222223;unknown
64862;BME280;62652;42.274;-71.436;2024-03-23T04:39:01;101870.0;;;2.1111111111111094;unknown
64862;BME280;62652;42.274;-71.436;2024-03-23T04:40:01;101870.0;;;2.1111111111111094;unknown
64862;BME280;62652;42.274;-71.436;2024-03-23T04:41:00;101880.0;;;2.1111111111111094;unknown
64862;BME280;62652;42.274;-71.436;2024-03-23T04:42:01;101880.0;;;2.2222222222222223;unknown
64862;BME280;62652;42.274;-71.436;2024-03-23T04:43:01;101880.0;;;2.000000000000001;unknown
64862;BME280;62652;42.274;-71.436;2024-03-23T04:44:00;101880.0;;;2.000000000000001;unknown
64862;BME280;62652;42.274;-71.436;2024-03-23T04:45:01;101880.0;;;2.000000000000001;unknown
64862;BME280;62652;42.274;-71.436;2024-03-23T04:46:00;101870.0;;;2.1111111111111094;unknown
64862;BME280;62652;42.274;-71.436;2024-03-23T04:47:01;101880.0;;;2.1111111111111094;unknown
64862;BME280;62652;42.274;-71.436;2024-03-23T04:48:00;101870.0;;;2.1111111111111094;unknown
64862;BME280;62652;42.274;-71.436;2024-03-23T04:49:00;101870.0;;;2.1111111111111094;unknown
64862;BME280;62652;42.274;-71.436;2024-03-23T04:50:01;101870.0;;;2.1111111111111094;unknown
64862;BME280;62652;42.274;-71.436;2024-03-23T04:51:00;101870.0;;;2.1111111111111094;unknown
64862;BME280;62652;42.274;-71.436;2024-03-23T04:52:00;101860.0;;;2.000000000000001;unknown
64862;BME280;62652;42.274;-71.436;2024-03-23T04:53:01;101860.0;;;2.000000000000001;unknown
64862;BME280;62652;42.274;-71.436;2024-03-23T04:54:00;101860.0;;;2.000000000000001;unknown
64862;BME280;62652;42.274;-71.436;2024-03-23T04:55:00;101870.0;;;2.000000000000001;unknown
64862;BME280;62652;42.274;-71.436;2024-03-23T04:56:01;101870.0;;;1.8888888888888882;unknown
64862;BME280;62652;42.274;-71.436;2024-03-23T04:57:01;101870.0;;;1.8888888888888882;unknown
64862;BME280;62652;42.274;-71.436;2024-03-23T04:58:01;101880.0;;;1.7777777777777795;unknown
64862;BME280;62652;42.274;-71.436;2024-03-23T04:59:01;101880.0;;;1.7777777777777795;unknown
64862;BME280;62652;42.274;-71.436;2024-03-23T05:00:00;101880.0;;;1.7777777777777795;unknown
64862;BME280;62652;42.274;-71.436;2024-03-23T05:01:00;101880.0;;;1.722222222222223;unknown
64862;BME280;62652;42.274;-71.436;2024-03-23T05:02:00;101870.0;;;1.722222222222223;unknown
64862;BME280;62652;42.274;-71.436;2024-03-23T05:03:01;101870.0;;;1.722222222222223;unknown
64862;BME280;62652;42.274;-71.436;2024-03-23T05:04:01;101870.0;;;1.7777777777777795;unknown
64862;BME280;62652;42.274;-71.436;2024-03-23T05:05:01;101870.0;;;1.7777777777777795;unknown
64862;BME280;62652;42.274;-71.436;2024-03-23T05:06:00;101870.0;;;1.722222222222223;unknown
64862;BME280;62652;42.274;-71.436;2024-03-23T05:07:01;101870.0;;;1.722222222222223;unknown
64862;BME280;62652;42.274;-71.436;2024-03-23T05:08:01;101870.0;;;1.722222222222223;unknown
64862;BME280;62652;42.274;-71.436;2024-03-23T05:09:01;101870.0;;;1.722222222222223;unknown
64862;BME280;62652;42.274;-71.436;2024-03-23T05:10:00;101860.0;;;1.722222222222223;unknown
64862;BME280;62652;42.274;-71.436;2024-03-23T05:11:01;101870.0;;;1.722222222222223;unknown
64862;BME280;62652;42.274;-71.436;2024-03-23T05:12:01;101860.0;;;1.722222222222223;unknown
64862;BME280;62652;42.274;-71.436;2024-03-23T05:13:00;101860.0;;;1.722222222222223;unknown
64862;BME280;62652;42.274;-71.436;2024-03-23T05:14:00;101860.0;;;1.722222222222223;unknown